sensor_id;sensor_type;location;lat;lon;timestamp;pressure;altitude;pressure_sealevel;temperature;humidity
57290;BME280;43523;53.022;-1.178;2024-03-02T00:00:10;98387.25;;;2.11;100.00
57290;BME280;43523;53.022;-1.178;2024-03-02T00:01:12;98385.60;;;2.00;100.00
57290;BME280;43523;53.022;-1.178;2024-03-02T00:02:14;98385.37;;;2.12;100.00
57290;BME280;43523;53.022;-1.178;2024-03-02T00:03:17;98388.36;;;1.98;100.00
57290;BME280;43523;53.022;-1.178;2024-03-02T00:04:19;98387.10;;;2.75;100.00
57290;BME280;43523;53.022;-1.178;2024-03-02T00:05:23;98383.84;;;2.68;100.00
57290;BME280;43523;53.022;-1.178;2024-03-02T00:06:25;98385.78;;;2.22;100.00
57290;BME280;43523;53.022;-1.178;2024-03-02T00:07:28;98387.22;;;2.55;100.00
57290;BME280;43523;53.022;-1.178;2024-03-02T00:08:30;98383.57;;;2.41;100.00
57290;BME280;43523;53.022;-1.178;2024-03-02T00:09:32;98382.41;;;2.88;100.00
57290;BME280;43523;53.022;-1.178;2024-03-02T00:10:37;98382.46;;;2.33;100.00
57290;BME280;43523;53.022;-1.178;2024-03-02T00:11:39;98383.58;;;2.70;100.00
57290;BME280;43523;53.022;-1.178;2024-03-02T00:12:42;98382.87;;;2.41;100.00
57290;BME280;43523;53.022;-1.178;2024-03-02T00:13:46;98384.07;;;2.24;100.00
57290;BME280;43523;53.022;-1.178;2024-03-02T00:14:48;98382.23;;;2.47;100.00
57290;BME280;43523;53.022;-1.178;2024-03-02T00:15:53;98382.99;;;2.57;100.00
57290;BME280;43523;53.022;-1.178;2024-03-02T00:16:56;98380.58;;;2.89;100.00
57290;BME280;43523;53.022;-1.178;2024-03-02T00:17:59;98379.62;;;2.69;100.00
57290;BME280;43523;53.022;-1.178;2024-03-02T00:19:02;98378.50;;;2.50;100.00
57290;BME280;43523;53.022;-1.178;2024-03-02T00:20:09;98377.43;;;2.70;100.00
57290;BME280;43523;53.022;-1.178;2024-03-02T00:21:12;98376.31;;;2.42;100.00
57290;BME280;43523;53.022;-1.178;2024-03-02T00:22:14;98375.82;;;2.71;100.00
57290;BME280;43523;53.022;-1.178;2024-03-02T00:23:17;98377.85;;;2.60;100.00
57290;BME280;43523;53.022;-1.178;2024-03-02T00:24:30;98380.11;;;2.66;100.00
57290;BME280;43523;53.022;-1.178;2024-03-02T00:25:39;98378.63;;;2.83;100.00
57290;BME280;43523;53.022;-1.178;2024-03-02T00:26:44;98379.78;;;2.91;100.00
57290;BME280;43523;53.022;-1.178;2024-03-02T00:27:48;98380.50;;;2.41;100.00
57290;BME280;43523;53.022;-1.178;2024-03-02T00:28:54;98381.24;;;2.57;100.00
57290;BME280;43523;53.022;-1.178;2024-03-02T00:29:58;98381.41;;;2.81;100.00
57290;BME280;43523;53.022;-1.178;2024-03-02T00:31:04;98382.76;;;2.81;100.00
57290;BME280;43523;53.022;-1.178;2024-03-02T00:32:13;98385.32;;;2.60;100.00
57290;BME280;43523;53.022;-1.178;2024-03-02T00:33:16;98387.78;;;2.44;100.00
57290;BME280;43523;53.022;-1.178;2024-03-02T00:34:19;98389.14;;;2.42;100.00
57290;BME280;43523;53.022;-1.178;2024-03-02T00:35:23;98389.77;;;2.52;100.00
57290;BME280;43523;53.022;-1.178;2024-03-02T00:36:26;98389.28;;;2.71;100.00
57290;BME280;43523;53.022;-1.178;2024-03-02T00:37:29;98388.21;;;2.41;100.00
57290;BME280;43523;53.022;-1.178;2024-03-02T00:38:33;98388.48;;;2.16;100.00
57290;BME280;43523;53.022;-1.178;2024-03-02T00:39:35;98388.52;;;2.19;100.00
57290;BME280;43523;53.022;-1.178;2024-03-02T00:40:38;98389.60;;;2.22;100.00
57290;BME280;43523;53.022;-1.178;2024-03-02T00:41:41;98391.34;;;2.15;100.00
57290;BME280;43523;53.022;-1.178;2024-03-02T00:42:43;98389.96;;;2.33;100.00
57290;BME280;43523;53.022;-1.178;2024-03-02T00:43:57;98388.46;;;2.89;100.00
57290;BME280;43523;53.022;-1.178;2024-03-02T00:44:59;98386.36;;;2.42;100.00
57290;BME280;43523;53.022;-1.178;2024-03-02T00:46:02;98384.02;;;2.27;100.00
57290;BME280;43523;53.022;-1.178;2024-03-02T00:47:05;98384.88;;;2.64;100.00
57290;BME280;43523;53.022;-1.178;2024-03-02T00:48:10;98384.62;;;2.67;100.00
57290;BME280;43523;53.022;-1.178;2024-03-02T00:49:18;98385.31;;;2.91;100.00
57290;BME280;43523;53.022;-1.178;2024-03-02T00:50:20;98383.90;;;2.57;100.00
57290;BME280;43523;53.022;-1.178;2024-03-02T00:51:24;98385.63;;;2.72;100.00
57290;BME280;43523;53.022;-1.178;2024-03-02T00:52:26;98387.01;;;2.53;100.00
57290;BME280;43523;53.022;-1.178;2024-03-02T00:53:30;98384.14;;;2.82;100.00
57290;BME280;43523;53.022;-1.178;2024-03-02T00:54:33;98385.60;;;2.09;100.00
57290;BME280;43523;53.022;-1.178;2024-03-02T00:55:36;98385.71;;;2.28;100.00
57290;BME280;43523;53.022;-1.178;2024-03-02T00:56:39;98388.00;;;2.19;100.00
57290;BME280;43523;53.022;-1.178;2024-03-02T00:57:43;98389.63;;;2.41;100.00
57290;BME280;43523;53.022;-1.178;2024-03-02T00:58:46;98387.93;;;2.63;100.00
57290;BME280;43523;53.022;-1.178;2024-03-02T00:59:48;98385.87;;;2.38;100.00
57290;BME280;43523;53.022;-1.178;2024-03-02T01:00:51;98383.48;;;2.58;100.00
57290;BME280;43523;53.022;-1.178;2024-03-02T01:01:53;98381.00;;;2.49;100.00
57290;BME280;43523;53.022;-1.178;2024-03-02T01:03:00;98377.73;;;2.31;100.00
57290;BME280;43523;53.022;-1.178;2024-03-02T01:04:03;98375.19;;;1.93;100.00
57290;BME280;43523;53.022;-1.178;2024-03-02T01:05:07;98376.10;;;2.14;100.00
57290;BME280;43523;53.022;-1.178;2024-03-02T01:06:10;98372.44;;;1.99;100.00
57290;BME280;43523;53.022;-1.178;2024-03-02T01:07:13;98372.80;;;2.24;100.00
57290;BME280;43523;53.022;-1.178;2024-03-02T01:08:15;98370.64;;;2.36;100.00
57290;BME280;43523;53.022;-1.178;2024-03-02T01:09:17;98372.16;;;2.48;100.00
57290;BME280;43523;53.022;-1.178;2024-03-02T01:10:20;98371.36;;;2.30;100.00
57290;BME280;43523;53.022;-1.178;2024-03-02T01:11:22;98371.19;;;2.56;100.00
57290;BME280;43523;53.022;-1.178;2024-03-02T01:12:25;98371.20;;;2.21;100.00
57290;BME280;43523;53.022;-1.178;2024-03-02T01:13:28;98367.79;;;2.25;100.00
57290;BME280;43523;53.022;-1.178;2024-03-02T01:14:30;98368.03;;;1.98;100.00
57290;BME280;43523;53.022;-1.178;2024-03-02T01:15:33;98369.29;;;1.90;100.00
57290;BME280;43523;53.022;-1.178;2024-03-02T01:16:35;98368.05;;;2.21;100.00
57290;BME280;43523;53.022;-1.178;2024-03-02T01:17:38;98368.18;;;2.54;100.00
57290;BME280;43523;53.022;-1.178;2024-03-02T01:18:41;98366.28;;;2.25;100.00
57290;BME280;43523;53.022;-1.178;2024-03-02T01:19:43;98367.75;;;2.71;100.00
57290;BME280;43523;53.022;-1.178;2024-03-02T01:20:45;98364.82;;;2.50;100.00
57290;BME280;43523;53.022;-1.178;2024-03-02T01:21:48;98364.84;;;2.55;100.00
57290;BME280;43523;53.022;-1.178;2024-03-02T01:22:50;98363.41;;;2.66;100.00
57290;BME280;43523;53.022;-1.178;2024-03-02T01:23:53;98362.81;;;2.28;100.00
57290;BME280;43523;53.022;-1.178;2024-03-02T01:24:55;98362.33;;;2.75;100.00
57290;BME280;43523;53.022;-1.178;2024-03-02T01:25:58;98359.75;;;2.58;100.00
57290;BME280;43523;53.022;-1.178;2024-03-02T01:27:01;98357.35;;;2.33;100.00
57290;BME280;43523;53.022;-1.178;2024-03-02T01:28:04;98360.49;;;2.49;100.00
57290;BME280;43523;53.022;-1.178;2024-03-02T01:29:06;98361.58;;;2.32;100.00
57290;BME280;43523;53.022;-1.178;2024-03-02T01:30:10;98362.35;;;2.49;100.00
57290;BME280;43523;53.022;-1.178;2024-03-02T01:31:13;98359.15;;;2.53;100.00
57290;BME280;43523;53.022;-1.178;2024-03-02T01:32:15;98360.11;;;2.61;100.00
57290;BME280;43523;53.022;-1.178;2024-03-02T01:33:18;98361.58;;;2.62;100.00
57290;BME280;43523;53.022;-1.178;2024-03-02T01:34:22;98362.14;;;2.57;100.00
57290;BME280;43523;53.022;-1.178;2024-03-02T01:35:25;98360.58;;;2.62;100.00
57290;BME280;43523;53.022;-1.178;2024-03-02T01:36:28;98360.91;;;2.31;100.00
57290;BME280;43523;53.022;-1.178;2024-03-02T01:37:30;98360.63;;;2.46;100.00
57290;BME280;43523;53.022;-1.178;2024-03-02T01:38:33;98359.78;;;2.55;100.00
57290;BME280;43523;53.022;-1.178;2024-03-02T01:39:35;98358.48;;;2.67;100.00
57290;BME280;43523;53.022;-1.178;2024-03-02T01:40:38;98360.47;;;2.75;100.00
57290;BME280;43523;53.022;-1.178;2024-03-02T01:41:41;98361.03;;;2.77;100.00
57290;BME280;43523;53.022;-1.178;2024-03-02T01:42:44;98359.56;;;2.94;100.00
57290;BME280;43523;53.022;-1.178;2024-03-02T01:43:47;98358.64;;;2.90;100.00
57290;BME280;43523;53.022;-1.178;2024-03-02T01:44:49;98357.56;;;2.81;100.00
57290;BME280;43523;53.022;-1.178;2024-03-02T01:45:52;98359.55;;;2.96;100.00
57290;BME280;43523;53.022;-1.178;2024-03-02T01:46:55;98354.51;;;2.92;100.00
57290;BME280;43523;53.022;-1.178;2024-03-02T01:47:57;98355.99;;;3.18;100.00
57290;BME280;43523;53.022;-1.178;2024-03-02T01:48:59;98353.48;;;3.17;100.00
57290;BME280;43523;53.022;-1.178;2024-03-02T01:50:02;98353.79;;;3.39;100.00
57290;BME280;43523;53.022;-1.178;2024-03-02T01:51:05;98352.53;;;3.12;100.00
57290;BME280;43523;53.022;-1.178;2024-03-02T01:52:08;98353.17;;;2.48;100.00
57290;BME280;43523;53.022;-1.178;2024-03-02T01:53:11;98354.10;;;2.54;100.00
57290;BME280;43523;53.022;-1.178;2024-03-02T01:54:13;98351.49;;;2.59;100.00
57290;BME280;43523;53.022;-1.178;2024-03-02T01:55:15;98351.96;;;2.06;100.00
57290;BME280;43523;53.022;-1.178;2024-03-02T01:56:18;98353.55;;;2.69;100.00
57290;BME280;43523;53.022;-1.178;2024-03-02T01:57:20;98352.79;;;2.72;100.00
57290;BME280;43523;53.022;-1.178;2024-03-02T01:58:23;98355.03;;;1.96;100.00
57290;BME280;43523;53.022;-1.178;2024-03-02T01:59:25;98355.11;;;2.80;100.00
57290;BME280;43523;53.022;-1.178;2024-03-02T02:00:28;98355.55;;;2.49;100.00
57290;BME280;43523;53.022;-1.178;2024-03-02T02:01:30;98357.92;;;2.25;100.00
57290;BME280;43523;53.022;-1.178;2024-03-02T02:02:33;98359.00;;;2.07;100.00
57290;BME280;43523;53.022;-1.178;2024-03-02T02:03:35;98358.43;;;2.42;100.00
57290;BME280;43523;53.022;-1.178;2024-03-02T02:04:38;98357.21;;;2.58;100.00
57290;BME280;43523;53.022;-1.178;2024-03-02T02:05:42;98357.64;;;2.39;100.00
57290;BME280;43523;53.022;-1.178;2024-03-02T02:06:45;98354.62;;;2.50;100.00
57290;BME280;43523;53.022;-1.178;2024-03-02T02:07:47;98352.91;;;2.14;100.00
57290;BME280;43523;53.022;-1.178;2024-03-02T02:08:50;98353.33;;;2.37;100.00
57290;BME280;43523;53.022;-1.178;2024-03-02T02:09:52;98354.16;;;2.08;100.00
57290;BME280;43523;53.022;-1.178;2024-03-02T02:10:54;98351.87;;;2.26;100.00
57290;BME280;43523;53.022;-1.178;2024-03-02T02:11:58;98348.88;;;2.21;100.00
57290;BME280;43523;53.022;-1.178;2024-03-02T02:13:00;98346.91;;;2.28;100.00
57290;BME280;43523;53.022;-1.178;2024-03-02T02:14:04;98346.07;;;2.19;100.00
57290;BME280;43523;53.022;-1.178;2024-03-02T02:15:22;98345.31;;;2.20;100.00
57290;BME280;43523;53.022;-1.178;2024-03-02T02:16:24;98343.60;;;1.90;100.00
57290;BME280;43523;53.022;-1.178;2024-03-02T02:17:27;98343.19;;;2.11;100.00
57290;BME280;43523;53.022;-1.178;2024-03-02T02:18:29;98343.49;;;2.54;100.00
57290;BME280;43523;53.022;-1.178;2024-03-02T02:19:32;98342.27;;;2.61;100.00
57290;BME280;43523;53.022;-1.178;2024-03-02T02:20:34;98339.78;;;2.19;100.00
57290;BME280;43523;53.022;-1.178;2024-03-02T02:21:37;98336.32;;;2.36;100.00
57290;BME280;43523;53.022;-1.178;2024-03-02T02:22:40;98333.18;;;2.63;100.00
57290;BME280;43523;53.022;-1.178;2024-03-02T02:23:43;98333.47;;;2.01;100.00
57290;BME280;43523;53.022;-1.178;2024-03-02T02:24:45;98333.56;;;2.21;100.00
57290;BME280;43523;53.022;-1.178;2024-03-02T02:25:47;98334.29;;;2.78;100.00
57290;BME280;43523;53.022;-1.178;2024-03-02T02:26:50;98335.22;;;2.29;100.00
57290;BME280;43523;53.022;-1.178;2024-03-02T02:27:53;98337.11;;;2.74;100.00
57290;BME280;43523;53.022;-1.178;2024-03-02T02:28:56;98338.79;;;2.93;100.00
57290;BME280;43523;53.022;-1.178;2024-03-02T02:29:58;98338.90;;;2.35;100.00
57290;BME280;43523;53.022;-1.178;2024-03-02T02:31:00;98341.08;;;2.20;100.00
57290;BME280;43523;53.022;-1.178;2024-03-02T02:32:03;98339.20;;;2.17;100.00
57290;BME280;43523;53.022;-1.178;2024-03-02T02:33:06;98341.35;;;2.57;100.00
57290;BME280;43523;53.022;-1.178;2024-03-02T02:34:11;98338.99;;;2.39;100.00
57290;BME280;43523;53.022;-1.178;2024-03-02T02:35:13;98338.42;;;2.06;100.00
57290;BME280;43523;53.022;-1.178;2024-03-02T02:36:15;98337.21;;;1.87;100.00
57290;BME280;43523;53.022;-1.178;2024-03-02T02:37:18;98333.90;;;1.95;100.00
57290;BME280;43523;53.022;-1.178;2024-03-02T02:38:20;98331.09;;;2.10;100.00
57290;BME280;43523;53.022;-1.178;2024-03-02T02:39:23;98330.77;;;1.24;100.00
57290;BME280;43523;53.022;-1.178;2024-03-02T02:40:25;98329.43;;;1.51;100.00
57290;BME280;43523;53.022;-1.178;2024-03-02T02:41:28;98329.85;;;2.07;100.00
57290;BME280;43523;53.022;-1.178;2024-03-02T02:42:30;98326.92;;;1.61;100.00
57290;BME280;43523;53.022;-1.178;2024-03-02T02:43:33;98326.47;;;1.61;100.00
57290;BME280;43523;53.022;-1.178;2024-03-02T02:44:35;98329.23;;;1.77;100.00
57290;BME280;43523;53.022;-1.178;2024-03-02T02:45:37;98333.10;;;0.99;100.00
57290;BME280;43523;53.022;-1.178;2024-03-02T02:46:40;98335.20;;;0.64;100.00
57290;BME280;43523;53.022;-1.178;2024-03-02T02:47:43;98336.87;;;1.15;100.00
57290;BME280;43523;53.022;-1.178;2024-03-02T02:48:45;98338.77;;;0.79;100.00
57290;BME280;43523;53.022;-1.178;2024-03-02T02:49:48;98332.65;;;1.13;100.00
57290;BME280;43523;53.022;-1.178;2024-03-02T02:50:52;98333.93;;;1.24;100.00
57290;BME280;43523;53.022;-1.178;2024-03-02T02:51:54;98336.57;;;0.95;100.00
57290;BME280;43523;53.022;-1.178;2024-03-02T02:52:56;98332.49;;;1.43;100.00
57290;BME280;43523;53.022;-1.178;2024-03-02T02:53:59;98331.09;;;1.01;100.00
57290;BME280;43523;53.022;-1.178;2024-03-02T02:55:03;98327.27;;;1.03;100.00
57290;BME280;43523;53.022;-1.178;2024-03-02T02:56:06;98329.13;;;0.89;100.00
57290;BME280;43523;53.022;-1.178;2024-03-02T02:57:09;98329.84;;;0.96;100.00
57290;BME280;43523;53.022;-1.178;2024-03-02T02:58:11;98330.64;;;0.80;100.00
57290;BME280;43523;53.022;-1.178;2024-03-02T02:59:14;98328.86;;;1.16;100.00
57290;BME280;43523;53.022;-1.178;2024-03-02T03:00:16;98326.21;;;1.30;100.00
57290;BME280;43523;53.022;-1.178;2024-03-02T03:01:19;98324.97;;;1.41;100.00
57290;BME280;43523;53.022;-1.178;2024-03-02T03:02:22;98322.62;;;1.56;100.00
57290;BME280;43523;53.022;-1.178;2024-03-02T03:03:24;98324.62;;;1.17;100.00
57290;BME280;43523;53.022;-1.178;2024-03-02T03:04:26;98320.33;;;1.65;100.00
57290;BME280;43523;53.022;-1.178;2024-03-02T03:05:29;98318.68;;;1.57;100.00
57290;BME280;43523;53.022;-1.178;2024-03-02T03:06:31;98318.46;;;0.84;100.00
57290;BME280;43523;53.022;-1.178;2024-03-02T03:07:34;98318.62;;;1.01;100.00
57290;BME280;43523;53.022;-1.178;2024-03-02T03:08:36;98320.80;;;1.36;100.00
57290;BME280;43523;53.022;-1.178;2024-03-02T03:09:39;98318.47;;;1.18;100.00
57290;BME280;43523;53.022;-1.178;2024-03-02T03:10:41;98319.53;;;0.93;100.00
57290;BME280;43523;53.022;-1.178;2024-03-02T03:11:44;98317.37;;;1.27;100.00
57290;BME280;43523;53.022;-1.178;2024-03-02T03:12:46;98317.81;;;1.33;100.00
57290;BME280;43523;53.022;-1.178;2024-03-02T03:13:48;98314.94;;;1.50;100.00
57290;BME280;43523;53.022;-1.178;2024-03-02T03:14:51;98313.00;;;1.12;100.00
57290;BME280;43523;53.022;-1.178;2024-03-02T03:15:53;98314.22;;;1.10;100.00
57290;BME280;43523;53.022;-1.178;2024-03-02T03:16:56;98312.25;;;1.12;100.00
57290;BME280;43523;53.022;-1.178;2024-03-02T03:17:59;98311.12;;;1.55;100.00
57290;BME280;43523;53.022;-1.178;2024-03-02T03:19:00;98308.61;;;1.59;100.00
57290;BME280;43523;53.022;-1.178;2024-03-02T03:20:05;98308.80;;;1.78;100.00
57290;BME280;43523;53.022;-1.178;2024-03-02T03:21:07;98309.18;;;2.37;100.00
57290;BME280;43523;53.022;-1.178;2024-03-02T03:22:10;98308.86;;;1.54;100.00
57290;BME280;43523;53.022;-1.178;2024-03-02T03:23:13;98308.92;;;1.94;100.00
57290;BME280;43523;53.022;-1.178;2024-03-02T03:24:14;98307.67;;;1.81;100.00
57290;BME280;43523;53.022;-1.178;2024-03-02T03:25:17;98302.78;;;1.52;100.00
57290;BME280;43523;53.022;-1.178;2024-03-02T03:26:19;98302.08;;;1.41;100.00
57290;BME280;43523;53.022;-1.178;2024-03-02T03:27:22;98302.79;;;1.08;100.00
57290;BME280;43523;53.022;-1.178;2024-03-02T03:28:24;98300.33;;;1.50;100.00
57290;BME280;43523;53.022;-1.178;2024-03-02T03:29:27;98299.58;;;1.51;100.00
57290;BME280;43523;53.022;-1.178;2024-03-02T03:30:29;98302.43;;;1.45;100.00
57290;BME280;43523;53.022;-1.178;2024-03-02T03:31:32;98301.02;;;1.17;100.00
57290;BME280;43523;53.022;-1.178;2024-03-02T03:32:34;98301.39;;;1.57;100.00
57290;BME280;43523;53.022;-1.178;2024-03-02T03:33:37;98303.09;;;1.86;100.00
57290;BME280;43523;53.022;-1.178;2024-03-02T03:34:39;98302.32;;;2.02;100.00
57290;BME280;43523;53.022;-1.178;2024-03-02T03:35:42;98301.21;;;1.98;100.00
57290;BME280;43523;53.022;-1.178;2024-03-02T03:36:45;98300.27;;;1.95;100.00
57290;BME280;43523;53.022;-1.178;2024-03-02T03:37:48;98299.41;;;1.70;100.00
57290;BME280;43523;53.022;-1.178;2024-03-02T03:38:51;98300.07;;;2.06;100.00
57290;BME280;43523;53.022;-1.178;2024-03-02T03:39:53;98301.68;;;2.10;100.00
57290;BME280;43523;53.022;-1.178;2024-03-02T03:40:55;98305.14;;;2.10;100.00
57290;BME280;43523;53.022;-1.178;2024-03-02T03:41:58;98308.24;;;1.97;100.00
57290;BME280;43523;53.022;-1.178;2024-03-02T03:43:00;98309.46;;;2.28;100.00
57290;BME280;43523;53.022;-1.178;2024-03-02T03:44:05;98308.93;;;2.47;100.00
57290;BME280;43523;53.022;-1.178;2024-03-02T03:45:09;98309.65;;;2.33;100.00
57290;BME280;43523;53.022;-1.178;2024-03-02T03:46:11;98310.50;;;2.38;100.00
57290;BME280;43523;53.022;-1.178;2024-03-02T03:47:14;98306.10;;;1.78;100.00
57290;BME280;43523;53.022;-1.178;2024-03-02T03:48:17;98307.58;;;2.33;100.00
57290;BME280;43523;53.022;-1.178;2024-03-02T03:49:19;98309.46;;;2.30;100.00
57290;BME280;43523;53.022;-1.178;2024-03-02T03:50:22;98307.65;;;2.01;100.00
57290;BME280;43523;53.022;-1.178;2024-03-02T03:51:25;98306.13;;;2.58;100.00
57290;BME280;43523;53.022;-1.178;2024-03-02T03:52:28;98307.48;;;2.12;100.00
57290;BME280;43523;53.022;-1.178;2024-03-02T03:53:30;98310.41;;;2.41;100.00
57290;BME280;43523;53.022;-1.178;2024-03-02T03:54:33;98310.15;;;2.60;100.00
57290;BME280;43523;53.022;-1.178;2024-03-02T03:55:36;98309.45;;;2.47;100.00
57290;BME280;43523;53.022;-1.178;2024-03-02T03:56:40;98309.60;;;2.48;100.00
57290;BME280;43523;53.022;-1.178;2024-03-02T03:57:43;98309.14;;;2.80;100.00
57290;BME280;43523;53.022;-1.178;2024-03-02T03:58:45;98308.69;;;2.66;100.00
57290;BME280;43523;53.022;-1.178;2024-03-02T03:59:47;98308.99;;;2.50;100.00
57290;BME280;43523;53.022;-1.178;2024-03-02T04:00:49;98312.99;;;2.52;100.00
57290;BME280;43523;53.022;-1.178;2024-03-02T04:01:52;98310.91;;;2.70;100.00
57290;BME280;43523;53.022;-1.178;2024-03-02T04:02:54;98312.62;;;2.75;100.00
57290;BME280;43523;53.022;-1.178;2024-03-02T04:03:56;98311.87;;;3.18;100.00
57290;BME280;43523;53.022;-1.178;2024-03-02T04:04:59;98312.70;;;2.50;100.00
57290;BME280;43523;53.022;-1.178;2024-03-02T04:06:01;98312.91;;;2.68;100.00
57290;BME280;43523;53.022;-1.178;2024-03-02T04:07:04;98312.78;;;2.61;100.00
57290;BME280;43523;53.022;-1.178;2024-03-02T04:08:09;98310.91;;;2.86;100.00
57290;BME280;43523;53.022;-1.178;2024-03-02T04:09:12;98309.66;;;2.54;100.00
57290;BME280;43523;53.022;-1.178;2024-03-02T04:10:14;98305.30;;;2.93;100.00
57290;BME280;43523;53.022;-1.178;2024-03-02T04:11:16;98305.19;;;2.76;100.00
57290;BME280;43523;53.022;-1.178;2024-03-02T04:12:18;98302.96;;;2.60;100.00
57290;BME280;43523;53.022;-1.178;2024-03-02T04:13:21;98304.10;;;2.48;100.00
57290;BME280;43523;53.022;-1.178;2024-03-02T04:14:24;98302.83;;;2.83;100.00
57290;BME280;43523;53.022;-1.178;2024-03-02T04:15:31;98298.92;;;2.96;100.00
57290;BME280;43523;53.022;-1.178;2024-03-02T04:16:33;98299.11;;;2.33;100.00
57290;BME280;43523;53.022;-1.178;2024-03-02T04:17:35;98296.91;;;2.60;100.00
57290;BME280;43523;53.022;-1.178;2024-03-02T04:18:38;98297.34;;;2.28;100.00
57290;BME280;43523;53.022;-1.178;2024-03-02T04:19:41;98294.65;;;2.31;100.00
57290;BME280;43523;53.022;-1.178;2024-03-02T04:20:43;98295.25;;;2.22;100.00
57290;BME280;43523;53.022;-1.178;2024-03-02T04:21:45;98296.27;;;1.98;100.00
57290;BME280;43523;53.022;-1.178;2024-03-02T04:22:48;98295.75;;;2.27;100.00
57290;BME280;43523;53.022;-1.178;2024-03-02T04:23:50;98294.20;;;2.34;100.00
57290;BME280;43523;53.022;-1.178;2024-03-02T04:24:53;98294.10;;;2.46;100.00
57290;BME280;43523;53.022;-1.178;2024-03-02T04:25:55;98291.90;;;2.21;100.00
57290;BME280;43523;53.022;-1.178;2024-03-02T04:27:00;98289.80;;;2.37;100.00
57290;BME280;43523;53.022;-1.178;2024-03-02T04:28:02;98291.52;;;2.76;100.00
57290;BME280;43523;53.022;-1.178;2024-03-02T04:29:04;98291.34;;;2.35;100.00
57290;BME280;43523;53.022;-1.178;2024-03-02T04:30:07;98287.88;;;2.59;100.00
57290;BME280;43523;53.022;-1.178;2024-03-02T04:31:09;98288.38;;;2.62;100.00
57290;BME280;43523;53.022;-1.178;2024-03-02T04:32:17;98288.77;;;3.07;100.00
57290;BME280;43523;53.022;-1.178;2024-03-02T04:33:18;98283.75;;;2.85;100.00
57290;BME280;43523;53.022;-1.178;2024-03-02T04:34:21;98283.77;;;2.99;100.00
57290;BME280;43523;53.022;-1.178;2024-03-02T04:35:23;98283.92;;;2.92;100.00
57290;BME280;43523;53.022;-1.178;2024-03-02T04:36:26;98283.68;;;2.98;100.00
57290;BME280;43523;53.022;-1.178;2024-03-02T04:37:28;98283.40;;;2.89;100.00
57290;BME280;43523;53.022;-1.178;2024-03-02T04:38:30;98285.87;;;2.91;100.00
57290;BME280;43523;53.022;-1.178;2024-03-02T04:39:34;98288.42;;;2.73;100.00
57290;BME280;43523;53.022;-1.178;2024-03-02T04:40:37;98292.97;;;2.36;100.00
57290;BME280;43523;53.022;-1.178;2024-03-02T04:41:39;98290.54;;;2.72;100.00
57290;BME280;43523;53.022;-1.178;2024-03-02T04:42:42;98295.51;;;2.56;100.00
57290;BME280;43523;53.022;-1.178;2024-03-02T04:43:44;98291.89;;;2.63;100.00
57290;BME280;43523;53.022;-1.178;2024-03-02T04:44:46;98294.21;;;2.52;100.00
57290;BME280;43523;53.022;-1.178;2024-03-02T04:45:48;98297.64;;;2.34;100.00
57290;BME280;43523;53.022;-1.178;2024-03-02T04:46:50;98300.07;;;2.47;100.00
57290;BME280;43523;53.022;-1.178;2024-03-02T04:47:53;98300.08;;;2.52;100.00
57290;BME280;43523;53.022;-1.178;2024-03-02T04:48:56;98303.89;;;2.07;100.00
57290;BME280;43523;53.022;-1.178;2024-03-02T04:50:05;98305.18;;;2.06;100.00
57290;BME280;43523;53.022;-1.178;2024-03-02T04:51:07;98305.74;;;2.23;100.00
57290;BME280;43523;53.022;-1.178;2024-03-02T04:52:11;98304.14;;;2.23;100.00
57290;BME280;43523;53.022;-1.178;2024-03-02T04:53:14;98306.04;;;2.08;100.00
57290;BME280;43523;53.022;-1.178;2024-03-02T04:54:16;98305.96;;;2.09;100.00
57290;BME280;43523;53.022;-1.178;2024-03-02T04:55:19;98308.27;;;1.23;100.00
57290;BME280;43523;53.022;-1.178;2024-03-02T04:56:21;98308.38;;;1.69;100.00
57290;BME280;43523;53.022;-1.178;2024-03-02T04:57:24;98306.05;;;2.13;100.00
57290;BME280;43523;53.022;-1.178;2024-03-02T04:58:26;98305.25;;;2.23;100.00
57290;BME280;43523;53.022;-1.178;2024-03-02T04:59:33;98305.48;;;2.11;100.00
57290;BME280;43523;53.022;-1.178;2024-03-02T05:00:35;98304.51;;;1.90;100.00
57290;BME280;43523;53.022;-1.178;2024-03-02T05:01:38;98303.79;;;2.05;100.00
57290;BME280;43523;53.022;-1.178;2024-03-02T05:02:40;98304.86;;;1.82;100.00
57290;BME280;43523;53.022;-1.178;2024-03-02T05:03:42;98302.90;;;2.32;100.00
57290;BME280;43523;53.022;-1.178;2024-03-02T05:04:44;98302.22;;;1.97;100.00
57290;BME280;43523;53.022;-1.178;2024-03-02T05:05:52;98301.16;;;2.40;100.00
57290;BME280;43523;53.022;-1.178;2024-03-02T05:06:54;98299.75;;;1.87;100.00
57290;BME280;43523;53.022;-1.178;2024-03-02T05:07:56;98299.05;;;1.74;100.00
57290;BME280;43523;53.022;-1.178;2024-03-02T05:08:58;98300.15;;;2.19;100.00
57290;BME280;43523;53.022;-1.178;2024-03-02T05:10:01;98301.92;;;2.44;100.00
57290;BME280;43523;53.022;-1.178;2024-03-02T05:11:04;98302.92;;;2.01;100.00
57290;BME280;43523;53.022;-1.178;2024-03-02T05:12:07;98304.96;;;2.07;100.00
57290;BME280;43523;53.022;-1.178;2024-03-02T05:13:10;98310.19;;;1.81;100.00
57290;BME280;43523;53.022;-1.178;2024-03-02T05:14:14;98311.34;;;2.02;100.00
57290;BME280;43523;53.022;-1.178;2024-03-02T05:15:16;98309.18;;;1.54;100.00
57290;BME280;43523;53.022;-1.178;2024-03-02T05:16:18;98311.23;;;1.73;100.00
57290;BME280;43523;53.022;-1.178;2024-03-02T05:17:21;98309.79;;;1.71;100.00
57290;BME280;43523;53.022;-1.178;2024-03-02T05:18:23;98306.53;;;2.04;100.00
57290;BME280;43523;53.022;-1.178;2024-03-02T05:19:25;98306.06;;;2.17;100.00
57290;BME280;43523;53.022;-1.178;2024-03-02T05:20:27;98307.16;;;1.68;100.00
57290;BME280;43523;53.022;-1.178;2024-03-02T05:21:30;98305.49;;;2.14;100.00
57290;BME280;43523;53.022;-1.178;2024-03-02T05:22:32;98309.81;;;1.68;100.00
57290;BME280;43523;53.022;-1.178;2024-03-02T05:23:34;98310.40;;;1.68;100.00
57290;BME280;43523;53.022;-1.178;2024-03-02T05:24:37;98309.88;;;1.81;100.00
57290;BME280;43523;53.022;-1.178;2024-03-02T05:25:39;98308.58;;;1.93;100.00
57290;BME280;43523;53.022;-1.178;2024-03-02T05:26:41;98309.36;;;1.72;100.00
57290;BME280;43523;53.022;-1.178;2024-03-02T05:27:44;98312.09;;;1.34;100.00
57290;BME280;43523;53.022;-1.178;2024-03-02T05:28:46;98313.44;;;1.44;100.00